Time;durP1;ratioP1;P1;durP2;ratioP2;P2;SDS_P1;SDS_P2;PMS_P1;PMS_P2;Temp;Humidity;BMP_temperature;BMP_pressure;BME280_temperature;BME280_humidity;BME280_pressure;Samples;Min_cycle;Max_cycle;Signal;HPM_P1;HPM_P2
2023/01/30 00:01:19;;;;;;;42.38;22.05;;;;;;;0.91;97.16;101544.19;5090287;28;20367;-65
2023/01/30 00:03:47;;;;;;;45.75;22.42;;;;;;;0.77;97.30;101524.34;5088731;28;20048;-65
2023/01/30 00:06:15;;;;;;;45.53;22.25;;;;;;;0.75;97.44;101526.41;5074323;28;20048;-65
2023/01/30 00:08:43;;;;;;;46.65;21.52;;;;;;;0.64;97.70;101516.13;5092778;28;20043;-65
2023/01/30 00:11:14;;;;;;;39.78;20.63;;;;;;;0.78;97.52;101525.19;5092112;28;20044;-65
2023/01/30 00:13:43;;;;;;;45.05;21.65;;;;;;;0.87;97.27;101528.59;5092861;28;20040;-65
2023/01/30 00:16:11;;;;;;;45.78;22.48;;;;;;;0.88;97.23;101525.69;5092797;28;20044;-65
2023/01/30 00:18:40;;;;;;;40.90;21.42;;;;;;;0.77;97.35;101521.63;5091571;28;20055;-65
2023/01/30 00:21:11;;;;;;;45.38;21.75;;;;;;;0.69;97.09;101516.38;5091835;28;20040;-65
2023/01/30 00:23:39;;;;;;;43.25;23.10;;;;;;;0.65;97.64;101507.00;5092802;28;20482;-65
2023/01/30 00:26:08;;;;;;;44.10;20.40;;;;;;;0.65;98.57;101504.31;5092032;28;20043;-65
2023/01/30 00:28:38;;;;;;;46.45;21.45;;;;;;;0.91;97.43;101502.91;5091892;28;20036;-65
2023/01/30 00:31:07;;;;;;;49.20;22.85;;;;;;;1.00;96.50;101509.84;5091574;28;20055;-65
2023/01/30 00:33:37;;;;;;;46.33;22.23;;;;;;;1.00;95.95;101506.31;5073265;28;20521;-65
2023/01/30 00:36:05;;;;;;;48.10;22.17;;;;;;;0.96;95.20;101496.94;5091964;28;20040;-66
2023/01/30 00:38:33;;;;;;;49.70;22.98;;;;;;;0.86;95.93;101502.66;5092257;28;20044;-66
2023/01/30 00:41:02;;;;;;;49.63;22.92;;;;;;;0.61;96.14;101500.31;5073425;28;20044;-65
2023/01/30 00:47:13;;;;;;;44.60;22.55;;;;;;;0.43;97.02;101490.78;5092424;28;20407;-68
2023/01/30 00:49:15;;;;;;;46.30;23.17;;;;;;;0.40;97.19;101486.63;5075161;28;20055;-68
2023/01/30 00:51:44;;;;;;;44.13;22.92;;;;;;;0.41;97.12;101495.53;5090899;28;20063;-68
2023/01/30 00:54:12;;;;;;;43.42;21.88;;;;;;;0.41;96.85;101487.47;5091230;28;20044;-68
2023/01/30 00:56:40;;;;;;;48.08;22.63;;;;;;;0.32;96.77;101483.22;5091794;28;20040;-68
2023/01/30 00:59:08;;;;;;;42.70;21.85;;;;;;;0.31;96.95;101478.84;5091841;28;20047;-68
2023/01/30 01:01:37;;;;;;;44.78;22.63;;;;;;;0.26;96.99;101488.31;5072740;28;20044;-68
2023/01/30 01:04:07;;;;;;;49.50;22.95;;;;;;;0.16;97.53;101482.41;5092255;28;20060;-68
2023/01/30 01:06:39;;;;;;;48.15;23.42;;;;;;;0.11;98.44;101477.56;5091412;28;20040;-68
2023/01/30 01:09:07;;;;;;;46.17;21.88;;;;;;;0.11;98.06;101479.44;5092204;28;20048;-67
2023/01/30 01:11:35;;;;;;;40.78;22.35;;;;;;;0.19;97.76;101473.13;5091560;28;20052;-68
2023/01/30 01:14:04;;;;;;;51.67;24.15;;;;;;;0.15;97.85;101478.06;5073649;28;20040;-68
2023/01/30 01:16:33;;;;;;;50.33;23.90;;;;;;;0.12;98.28;101473.03;5074116;28;20422;-68
2023/01/30 01:19:01;;;;;;;40.63;22.40;;;;;;;-0.02;98.23;101475.56;5073688;28;20051;-67
2023/01/30 01:21:29;;;;;;;50.20;24.48;;;;;;;-0.04;98.53;101469.50;5083040;28;20406;-68
2023/01/30 01:23:58;;;;;;;48.22;23.15;;;;;;;0.08;98.24;101477.13;5073942;28;20051;-68
2023/01/30 01:26:26;;;;;;;46.38;23.33;;;;;;;0.02;98.59;101472.50;5092063;28;20051;-68
2023/01/30 01:28:56;;;;;;;44.45;21.52;;;;;;;-0.06;98.83;101471.56;5092071;28;20040;-68
2023/01/30 01:31:24;;;;;;;47.90;22.83;;;;;;;-0.11;99.21;101465.09;5090360;28;20048;-67
2023/01/30 01:33:55;;;;;;;45.33;22.70;;;;;;;-0.20;99.44;101469.75;5073913;28;20036;-68
2023/01/30 01:36:25;;;;;;;47.70;22.30;;;;;;;-0.16;99.56;101455.72;5091876;28;20047;-68
2023/01/30 01:39:13;;;;;;;45.90;20.83;;;;;;;-0.08;99.80;101457.47;5091879;28;20509;-68
2023/01/30 01:41:41;;;;;;;41.80;20.98;;;;;;;-0.10;99.87;101446.03;5091242;28;20037;-68
2023/01/30 01:44:15;;;;;;;39.72;20.50;;;;;;;-0.12;100.00;101442.72;5091889;28;20399;-68
2023/01/30 01:46:58;;;;;;;40.95;20.70;;;;;;;-0.08;99.92;101440.47;5073765;28;20045;-68
2023/01/30 01:49:32;;;;;;;43.72;22.02;;;;;;;-0.03;100.00;101433.53;5090894;28;20044;-68
2023/01/30 01:52:08;;;;;;;40.45;21.17;;;;;;;-0.05;100.00;101434.75;5074820;28;20387;-68
2023/01/30 01:54:48;;;;;;;50.90;21.83;;;;;;;-0.02;100.00;101431.66;5095102;28;20407;-68
2023/01/30 01:57:30;;;;;;;41.33;19.90;;;;;;;0.11;100.00;101439.06;5060155;28;20047;-68
2023/01/30 02:00:19;;;;;;;41.33;20.92;;;;;;;0.18;99.77;101433.75;5076739;28;20063;-68
2023/01/30 02:03:10;;;;;;;44.30;21.38;;;;;;;0.16;99.79;101435.81;5066669;28;20040;-67
2023/01/30 02:05:44;;;;;;;43.17;21.42;;;;;;;0.19;99.66;101424.66;5094187;28;20052;-68
2023/01/30 02:08:24;;;;;;;38.55;20.40;;;;;;;0.15;99.59;101418.84;5060520;28;20047;-68
2023/01/30 02:11:17;;;;;;;43.22;20.40;;;;;;;0.19;99.22;101425.50;5094489;28;20368;-68
2023/01/30 02:13:46;;;;;;;41.53;20.02;;;;;;;0.23;98.93;101416.03;5094769;28;20036;-67
2023/01/30 02:16:14;;;;;;;47.20;21.90;;;;;;;0.17;98.12;101418.63;5095023;28;20063;-67
2023/01/30 02:18:45;;;;;;;40.35;21.38;;;;;;;0.18;97.96;101413.06;5094075;28;20048;-68
2023/01/30 02:21:19;;;;;;;39.10;21.38;;;;;;;0.15;97.60;101408.06;5093984;28;20498;-68
2023/01/30 02:24:02;;;;;;;37.88;19.70;;;;;;;0.12;97.48;101419.19;5094805;28;20502;-67
2023/01/30 02:26:44;;;;;;;43.10;20.77;;;;;;;0.09;97.44;101409.66;5076839;28;20044;-68
2023/01/30 02:29:18;;;;;;;47.22;20.83;;;;;;;0.02;97.99;101407.91;5076474;28;20044;-68
2023/01/30 02:31:54;;;;;;;39.85;20.70;;;;;;;0.09;97.33;101404.25;5082391;28;20040;-68
2023/01/30 02:34:44;;;;;;;40.53;20.88;;;;;;;0.09;97.35;101400.72;5094613;28;20048;-68
2023/01/30 02:37:37;;;;;;;42.97;20.70;;;;;;;0.07;97.21;101410.84;5076468;28;20483;-68
2023/01/30 02:40:33;;;;;;;40.60;19.75;;;;;;;0.04;97.44;101405.88;5094016;28;20043;-68
2023/01/30 02:43:10;;;;;;;42.97;20.58;;;;;;;0.05;96.63;101407.53;5076131;28;20059;-68
2023/01/30 02:45:53;;;;;;;43.20;22.05;;;;;;;0.02;95.86;101392.59;5059295;28;20040;-68
2023/01/30 02:48:33;;;;;;;35.38;20.02;;;;;;;0.02;95.67;101397.13;5076125;28;20051;-67
2023/01/30 02:51:10;;;;;;;44.55;22.08;;;;;;;-0.06;95.85;101398.91;5075608;28;20051;-68
2023/01/30 02:53:39;;;;;;;44.55;19.77;;;;;;;-0.22;97.15;101391.91;5056181;28;20044;-68
2023/01/30 02:56:07;;;;;;;42.72;20.35;;;;;;;-0.33;98.05;101387.84;5066710;28;20048;-68
2023/01/30 02:58:40;;;;;;;42.83;20.85;;;;;;;-0.33;98.02;101390.53;5076124;28;20478;-68
2023/01/30 03:01:14;;;;;;;40.43;20.50;;;;;;;-0.34;98.71;101388.00;5075287;28;20032;-68
2023/01/30 03:04:28;;;;;;;38.92;21.85;;;;;;;-0.34;99.33;101378.06;5085628;28;20040;-67
2023/01/30 03:07:15;;;;;;;44.38;21.77;;;;;;;-0.30;99.42;101381.22;5075789;28;20491;-68
2023/01/30 03:09:46;;;;;;;39.33;20.55;;;;;;;-0.32;99.58;101372.50;5075651;28;20396;-68
2023/01/30 03:12:30;;;;;;;38.88;21.60;;;;;;;-0.22;98.69;101365.00;5069248;28;20051;-68
2023/01/30 03:15:01;;;;;;;;;;;;;;;-0.12;97.96;101363.84;5076273;28;20047;-68
2023/01/30 03:17:31;;;;;;;41.13;20.67;;;;;;;-0.19;96.96;101364.59;5075867;28;19931;-68
2023/01/30 03:20:02;;;;;;;42.28;20.48;;;;;;;-0.22;97.25;101353.38;5075116;28;20513;-67
2023/01/30 03:22:30;;;;;;;43.47;20.65;;;;;;;-0.26;96.89;101358.31;5075451;28;20393;-68
2023/01/30 03:24:58;;;;;;;38.17;20.05;;;;;;;-0.29;96.90;101348.75;5075721;28;20055;-67
2023/01/30 03:27:26;;;;;;;40.75;20.67;;;;;;;-0.31;97.27;101349.97;5093801;28;20059;-67
2023/01/30 03:29:54;;;;;;;44.95;21.17;;;;;;;-0.38;97.40;101343.69;5092700;28;20049;-68
2023/01/30 03:32:22;;;;;;;42.00;20.65;;;;;;;-0.40;97.30;101341.16;5093335;28;20040;-68
2023/01/30 03:34:50;;;;;;;38.85;21.15;;;;;;;-0.41;97.76;101336.81;5055132;28;20040;-68
2023/01/30 03:37:18;;;;;;;42.78;20.48;;;;;;;-0.38;97.94;101339.16;5071866;28;20399;-68
2023/01/30 03:39:46;;;;;;;39.00;18.88;;;;;;;-0.32;100.00;101335.69;5079278;28;20052;-67
2023/01/30 03:42:14;;;;;;;38.38;19.55;;;;;;;-0.27;100.00;101343.19;5091355;28;20047;-68
2023/01/30 03:44:42;;;;;;;44.13;20.80;;;;;;;-0.22;99.66;101331.84;5074833;28;20052;-68
2023/01/30 03:47:10;;;;;;;44.13;21.15;;;;;;;-0.19;99.37;101331.50;5075284;28;20497;-67
2023/01/30 03:49:39;;;;;;;43.97;20.55;;;;;;;-0.14;99.35;101340.66;5074635;28;20395;-68
2023/01/30 03:52:07;;;;;;;42.25;20.80;;;;;;;-0.10;98.74;101327.66;5092219;28;20044;-68
2023/01/30 03:54:35;;;;;;;39.72;21.00;;;;;;;-0.06;98.32;101326.25;5074728;28;20032;-68
2023/01/30 03:57:03;;;;;;;41.35;20.52;;;;;;;-0.14;98.25;101312.94;5092997;28;20394;-68
2023/01/30 03:59:31;;;;;;;40.40;20.20;;;;;;;-0.13;97.93;101319.97;5075076;28;20048;-68
2023/01/30 04:02:05;;;;;;;41.95;20.58;;;;;;;-0.13;97.29;101319.97;5073978;28;20048;-67
2023/01/30 04:04:34;;;;;;;40.75;20.25;;;;;;;-0.02;96.38;101322.16;5074979;28;20032;-68
2023/01/30 04:07:04;;;;;;;40.78;20.90;;;;;;;-0.15;96.13;101313.94;5075015;28;20503;-68
2023/01/30 04:09:34;;;;;;;43.88;21.70;;;;;;;-0.23;96.88;101314.06;5074956;28;20139;-68
2023/01/30 04:12:02;;;;;;;41.15;20.25;;;;;;;-0.25;97.01;101326.88;5074293;28;20055;-68
2023/01/30 04:14:35;;;;;;;44.58;21.35;;;;;;;-0.44;97.96;101302.25;5074399;28;20040;-68
2023/01/30 04:17:26;;;;;;;39.42;20.50;;;;;;;-0.48;98.45;101307.16;5086712;28;20060;-68
2023/01/30 04:20:16;;;;;;;36.53;19.60;;;;;;;-0.48;98.81;101295.56;5057918;28;20423;-68
2023/01/30 04:22:49;;;;;;;38.40;19.63;;;;;;;-0.44;99.69;101291.50;5071027;28;20040;-68
2023/01/30 04:25:18;;;;;;;40.63;20.92;;;;;;;-0.40;99.86;101290.06;5070434;28;20294;-68
2023/01/30 04:27:47;;;;;;;41.05;19.45;;;;;;;-0.40;99.68;101290.06;5052802;28;20048;-68
2023/01/30 04:30:19;;;;;;;37.70;19.77;;;;;;;-0.36;100.00;101288.69;5059288;28;20416;-67
2023/01/30 04:32:49;;;;;;;45.60;21.58;;;;;;;-0.36;99.69;101288.69;5069090;28;20056;-68
2023/01/30 04:35:17;;;;;;;38.97;19.90;;;;;;;-0.28;99.19;101290.44;5070914;28;20052;-67
2023/01/30 04:37:45;;;;;;;38.25;19.48;;;;;;;-0.17;98.02;101283.69;5071035;28;20055;-68
2023/01/30 04:40:18;;;;;;;45.35;19.80;;;;;;;-0.16;97.20;101275.44;5070738;28;20047;-67
2023/01/30 04:42:46;;;;;;;35.33;19.90;;;;;;;-0.11;97.05;101282.13;5068645;28;20037;-68
2023/01/30 04:45:50;;;;;;;38.60;19.27;;;;;;;-0.17;97.11;101268.41;5052086;28;20057;-68
2023/01/30 04:48:20;;;;;;;41.35;19.02;;;;;;;-0.25;97.45;101260.44;5050964;28;20049;-68
2023/01/30 04:50:52;;;;;;;39.03;19.63;;;;;;;-0.30;97.39;101265.56;5059303;28;20041;-68
2023/01/30 04:53:20;;;;;;;38.53;20.00;;;;;;;-0.33;97.42;101264.09;5070991;28;20040;-68
2023/01/30 04:55:49;;;;;;;34.25;18.15;;;;;;;-0.38;97.62;101263.84;5070667;28;20045;-67
2023/01/30 04:58:18;;;;;;;40.60;19.75;;;;;;;-0.43;98.00;101260.88;5054461;28;20495;-68
2023/01/30 05:00:46;;;;;;;53.53;28.30;;;;;;;-0.34;97.02;101259.72;5055642;28;20048;-68
2023/01/30 05:03:15;;;;;;;42.72;22.58;;;;;;;-0.30;96.71;101258.31;5070908;28;20051;-68
2023/01/30 05:05:47;;;;;;;40.65;22.45;;;;;;;-0.37;96.56;101254.75;5071923;28;20053;-68
2023/01/30 05:08:15;;;;;;;41.63;21.23;;;;;;;-0.47;97.02;101256.91;5071853;28;20494;-68
2023/01/30 05:10:43;;;;;;;38.58;20.98;;;;;;;-0.66;98.11;101253.78;5071210;28;20056;-68
2023/01/30 05:13:11;;;;;;;39.88;19.58;;;;;;;-0.66;97.92;101245.72;5072029;28;20052;-68
2023/01/30 05:15:39;;;;;;;39.97;19.90;;;;;;;-0.65;99.08;101246.56;5071668;28;20484;-68
2023/01/30 05:18:07;;;;;;;43.30;20.13;;;;;;;-0.66;99.82;101248.41;5072380;28;20049;-68
2023/01/30 05:20:34;;;;;;;36.85;18.67;;;;;;;-0.59;100.00;101249.31;5090736;28;20044;-68
2023/01/30 05:23:02;;;;;;;37.55;19.05;;;;;;;-0.49;100.00;101243.63;5053759;28;20040;-67
2023/01/30 05:25:30;;;;;;;37.15;18.77;;;;;;;-0.42;99.15;101260.69;5090968;28;20505;-68
2023/01/30 05:27:59;;;;;;;36.05;19.45;;;;;;;-0.19;100.00;101266.94;5095898;28;20052;-71
2023/01/30 05:30:26;;;;;;;38.20;19.65;;;;;;;-0.18;96.82;101266.75;5060503;28;20059;-68
2023/01/30 05:32:57;;;;;;;38.70;19.65;;;;;;;-0.28;96.51;101268.91;5057610;28;20071;-67
2023/01/30 05:35:25;;;;;;;40.70;19.75;;;;;;;-0.39;96.54;101266.72;5087184;28;20078;-68
2023/01/30 05:37:53;;;;;;;36.60;17.63;;;;;;;-0.52;96.72;101272.75;5084847;28;20053;-68
2023/01/30 05:40:20;;;;;;;33.28;18.30;;;;;;;-0.56;97.05;101272.31;5075459;28;20048;-68
2023/01/30 05:42:48;;;;;;;37.40;18.75;;;;;;;-0.47;96.68;101281.09;5075426;28;20048;-68
2023/01/30 05:45:16;;;;;;;36.85;20.10;;;;;;;-0.52;96.05;101267.38;5075394;28;20047;-67
2023/01/30 05:47:50;;;;;;;40.75;19.83;;;;;;;-0.65;96.56;101268.88;5075387;28;20041;-68
2023/01/30 05:50:18;;;;;;;39.95;19.23;;;;;;;-0.53;96.04;101279.16;5082298;28;20043;-68
2023/01/30 05:52:46;;;;;;;36.63;17.50;;;;;;;-0.69;95.15;101279.19;5095134;28;20557;-67
2023/01/30 05:55:14;;;;;;;38.10;17.95;;;;;;;-0.85;96.99;101290.97;5095514;28;20402;-67
2023/01/30 05:57:43;;;;;;;39.00;20.25;;;;;;;-0.88;97.36;101290.53;5091906;28;20048;-67
2023/01/30 06:00:11;;;;;;;40.10;18.65;;;;;;;-0.85;96.09;101296.34;5061401;28;20040;-68
2023/01/30 06:02:42;;;;;;;40.05;19.48;;;;;;;-0.95;96.39;101285.03;5068470;28;20044;-67
2023/01/30 06:05:10;;;;;;;38.92;18.30;;;;;;;-0.96;96.69;101280.69;5088806;28;20043;-68
2023/01/30 06:07:38;;;;;;;43.47;19.65;;;;;;;-0.98;96.22;101274.69;5074712;28;21547;-67
2023/01/30 06:10:06;;;;;;;39.28;18.77;;;;;;;-1.13;96.41;101272.81;5094289;28;20044;-67
2023/01/30 06:12:34;;;;;;;38.85;18.38;;;;;;;-1.15;97.17;101274.00;5092302;28;20048;-68
2023/01/30 06:15:02;;;;;;;40.75;18.80;;;;;;;-1.17;97.54;101271.50;5075885;28;20059;-67
2023/01/30 06:17:30;;;;;;;38.75;17.60;;;;;;;-1.19;97.77;101276.25;5080167;28;20048;-66
2023/01/30 06:19:58;;;;;;;34.67;17.80;;;;;;;-1.12;97.53;101279.84;5079564;28;20060;-67
2023/01/30 06:22:25;;;;;;;34.78;16.65;;;;;;;-1.04;97.89;101278.94;5071897;28;20691;-67
2023/01/30 06:24:53;;;;;;;36.45;18.08;;;;;;;-1.10;97.24;101285.88;5052931;28;20500;-67
2023/01/30 06:27:21;;;;;;;37.53;17.45;;;;;;;-1.15;97.69;101280.22;5065266;28;20039;-67
2023/01/30 06:29:50;;;;;;;34.00;16.60;;;;;;;-1.21;98.12;101275.59;5075681;28;20048;-67
2023/01/30 06:32:18;;;;;;;33.10;16.52;;;;;;;-1.20;98.99;101281.78;5093864;28;20043;-67
2023/01/30 06:34:46;;;;;;;41.10;17.05;;;;;;;-1.16;98.67;101289.31;5075225;28;20040;-67
2023/01/30 06:37:14;;;;;;;35.58;18.25;;;;;;;-1.07;98.68;101287.38;5089451;28;20052;-67
2023/01/30 06:39:41;;;;;;;39.88;17.35;;;;;;;-0.95;98.04;101293.09;5059232;28;20040;-67
2023/01/30 06:42:09;;;;;;;35.03;17.20;;;;;;;-0.86;97.68;101296.53;5073669;28;20993;-67
2023/01/30 06:44:40;;;;;;;34.50;17.13;;;;;;;-0.83;97.53;101288.94;5065902;28;20033;-67
2023/01/30 06:47:08;;;;;;;37.97;18.75;;;;;;;-0.71;97.09;101283.94;5074141;28;20507;-67
2023/01/30 06:49:36;;;;;;;35.05;17.80;;;;;;;-0.80;97.06;101282.34;5089071;28;20403;-67
2023/01/30 06:52:04;;;;;;;36.30;17.95;;;;;;;-0.94;97.16;101289.41;5082290;28;20051;-67
2023/01/30 06:54:32;;;;;;;42.22;18.58;;;;;;;-0.98;97.49;101282.75;5074885;28;20056;-67
2023/01/30 06:57:00;;;;;;;34.08;17.75;;;;;;;-0.90;97.49;101288.00;5071000;28;20061;-66
2023/01/30 06:59:28;;;;;;;37.47;18.30;;;;;;;-0.90;97.62;101282.63;5068786;28;20399;-67
2023/01/30 07:01:56;;;;;;;34.58;18.58;;;;;;;-0.80;97.72;101292.28;5072144;28;20056;-66
2023/01/30 07:04:24;;;;;;;41.78;19.33;;;;;;;-0.63;97.14;101299.09;5071347;28;20029;-67
2023/01/30 07:06:53;;;;;;;31.23;16.65;;;;;;;-0.36;95.99;101299.44;5071874;28;20059;-66
2023/01/30 07:09:21;;;;;;;32.10;17.08;;;;;;;-0.43;95.59;101283.22;5071347;28;20061;-67
2023/01/30 07:11:49;;;;;;;33.33;17.92;;;;;;;-0.58;96.37;101272.50;5072901;28;20040;-66
2023/01/30 07:14:17;;;;;;;34.58;16.55;;;;;;;-0.21;96.19;101274.34;5081052;28;20045;-66
2023/01/30 07:16:45;;;;;;;34.33;17.70;;;;;;;0.15;95.42;101278.00;5070245;28;20102;-67
2023/01/30 07:19:13;;;;;;;35.78;17.48;;;;;;;0.44;92.95;101266.22;5081429;28;20420;-67
2023/01/30 07:21:41;;;;;;;37.75;17.02;;;;;;;0.52;92.44;101263.41;5091695;28;20051;-67
2023/01/30 07:24:09;;;;;;;34.45;16.60;;;;;;;0.86;90.59;101274.41;5092082;28;20494;-67
2023/01/30 07:26:38;;;;;;;36.30;16.75;;;;;;;1.14;89.21;101278.09;5073757;28;20044;-66
2023/01/30 07:29:06;;;;;;;32.38;17.17;;;;;;;1.22;88.05;101277.91;5092237;28;20394;-67
2023/01/30 07:31:34;;;;;;;36.03;16.05;;;;;;;1.27;89.98;101285.44;5090793;28;20487;-73
2023/01/30 07:34:02;;;;;;;31.15;16.27;;;;;;;1.42;87.48;101287.97;5085897;28;20044;-66
2023/01/30 07:36:32;;;;;;;30.45;14.40;;;;;;;1.51;87.32;101281.34;5092195;28;20068;-67
2023/01/30 07:39:00;;;;;;;28.88;13.55;;;;;;;1.47;87.33;101280.13;5091142;28;20439;-67
2023/01/30 07:41:28;;;;;;;31.52;13.25;;;;;;;1.70;87.16;101278.94;5091886;28;20490;-67
2023/01/30 07:43:57;;;;;;;29.23;13.60;;;;;;;1.60;87.10;101272.06;5092106;28;20048;-67
2023/01/30 07:46:25;;;;;;;29.23;14.05;;;;;;;2.01;86.18;101280.25;5092308;28;20040;-67
2023/01/30 07:48:53;;;;;;;27.33;12.98;;;;;;;2.61;83.28;101270.50;5091015;28;20051;-67
2023/01/30 07:51:21;;;;;;;27.30;11.95;;;;;;;2.81;82.00;101278.59;5092547;28;20059;-67
2023/01/30 07:53:50;;;;;;;26.48;12.32;;;;;;;3.19;79.84;101271.63;5091829;28;20063;-67
2023/01/30 07:56:20;;;;;;;22.13;11.35;;;;;;;3.22;78.96;101280.16;5091945;28;20051;-67
2023/01/30 07:58:49;;;;;;;26.77;11.93;;;;;;;3.26;79.06;101285.97;5091456;28;20056;-67
2023/01/30 08:01:20;;;;;;;25.92;11.52;;;;;;;2.97;80.04;101287.31;5091539;28;20074;-67
2023/01/30 08:03:48;;;;;;;21.63;11.70;;;;;;;2.98;80.49;101286.25;5091521;28;20044;-67
2023/01/30 08:06:16;;;;;;;21.58;11.02;;;;;;;3.03;79.82;101264.81;5092453;28;20051;-67
2023/01/30 08:08:44;;;;;;;28.88;12.00;;;;;;;2.77;81.50;101274.63;5092596;28;20044;-67
2023/01/30 08:11:13;;;;;;;20.75;10.55;;;;;;;2.55;81.56;101258.69;5092445;28;20040;-67
2023/01/30 08:13:41;;;;;;;22.25;11.02;;;;;;;2.55;82.28;101254.09;5074400;28;20051;-67
2023/01/30 08:16:09;;;;;;;22.38;13.20;;;;;;;2.37;83.31;101252.03;5091277;28;20510;-67
2023/01/30 08:18:37;;;;;;;31.83;12.77;;;;;;;2.36;83.68;101244.13;5090930;28;20064;-67
2023/01/30 08:21:06;;;;;;;29.60;12.27;;;;;;;2.26;83.36;101244.56;5091200;28;20071;-67
2023/01/30 08:23:34;;;;;;;29.27;12.50;;;;;;;2.52;84.27;101218.53;5092331;28;20048;-67
2023/01/30 08:26:03;;;;;;;29.48;12.15;;;;;;;2.46;84.13;101217.53;5092212;28;20040;-67
2023/01/30 08:28:31;;;;;;;30.23;14.50;;;;;;;2.66;83.33;101222.06;5092047;28;20044;-67
2023/01/30 08:31:00;;;;;;;24.85;12.57;;;;;;;2.74;82.89;101218.31;5073774;28;20066;-67
2023/01/30 08:33:28;;;;;;;30.63;12.18;;;;;;;2.53;85.50;101212.09;5092481;28;20554;-75
2023/01/30 08:35:59;;;;;;;29.23;12.10;;;;;;;3.00;84.28;101220.09;5092380;28;20395;-75
2023/01/30 08:38:27;;;;;;;24.80;12.82;;;;;;;3.18;82.41;101210.47;5090256;28;20036;-74
2023/01/30 08:40:56;;;;;;;24.63;12.50;;;;;;;3.31;80.04;101212.25;5084279;28;20048;-74
2023/01/30 08:43:24;;;;;;;29.45;12.13;;;;;;;3.32;80.25;101213.94;5083102;28;20043;-74
2023/01/30 08:45:57;;;;;;;28.20;13.45;;;;;;;3.16;79.05;101226.06;5086865;28;20398;-74
2023/01/30 08:48:25;;;;;;;30.73;12.73;;;;;;;3.32;79.60;101249.13;5090338;28;20044;-73
2023/01/30 08:51:05;;;;;;;34.42;13.68;;;;;;;3.36;78.69;101242.22;5054696;28;20055;-76
2023/01/30 08:53:41;;;;;;;24.52;13.20;;;;;;;3.28;79.47;101218.13;5069883;28;20526;-75
2023/01/30 08:56:09;;;;;;;27.67;11.77;;;;;;;3.23;80.72;101226.88;5087042;28;20044;-74
2023/01/30 08:58:37;;;;;;;28.42;13.68;;;;;;;3.48;80.72;101240.50;5071187;28;20048;-75
2023/01/30 09:01:06;;;;;;;23.13;14.10;;;;;;;3.67;80.23;101229.75;5076544;28;20052;-76
2023/01/30 09:03:35;;;;;;;25.90;13.75;;;;;;;3.86;80.01;101235.28;5063192;28;20051;-77
2023/01/30 09:06:04;;;;;;;32.08;15.02;;;;;;;4.07;79.72;101230.56;5097012;28;20051;-76
2023/01/30 09:08:35;;;;;;;26.60;13.85;;;;;;;4.11;79.24;101234.50;5098083;28;20395;-75
2023/01/30 09:11:05;;;;;;;25.92;13.13;;;;;;;4.39;78.32;101235.91;5089420;28;20051;-75
2023/01/30 09:13:33;;;;;;;28.23;13.25;;;;;;;4.45;77.61;101224.19;5098537;28;20052;-76
2023/01/30 09:16:03;;;;;;;28.73;14.23;;;;;;;4.42;76.32;101217.34;5090734;28;20047;-75
2023/01/30 09:18:31;;;;;;;25.02;13.45;;;;;;;4.50;76.82;101199.13;5075730;28;20075;-76
2023/01/30 09:21:03;;;;;;;24.55;13.40;;;;;;;4.41;75.14;101202.13;5077359;28;20063;-76
2023/01/30 09:23:34;;;;;;;28.63;14.70;;;;;;;4.45;75.35;101210.63;5075763;28;20040;-76
2023/01/30 09:26:03;;;;;;;27.88;14.10;;;;;;;4.69;75.08;101214.34;5076994;28;20041;-76
2023/01/30 09:28:32;;;;;;;26.80;13.05;;;;;;;4.65;75.27;101198.78;5077324;28;20040;-76
2023/01/30 09:31:01;;;;;;;31.38;13.35;;;;;;;4.64;73.63;101206.06;5077396;28;20040;-76
2023/01/30 09:33:29;;;;;;;29.58;14.35;;;;;;;4.76;74.56;101194.47;5076997;28;20044;-76
2023/01/30 09:36:00;;;;;;;28.13;14.65;;;;;;;4.84;73.67;101191.47;5077303;28;20045;-76
2023/01/30 09:38:28;;;;;;;29.58;15.27;;;;;;;5.03;73.38;101189.56;5072792;28;20475;-76
2023/01/30 09:40:56;;;;;;;25.55;14.00;;;;;;;5.10;74.17;101201.16;5077346;28;20041;-76
2023/01/30 09:43:47;;;;;;;23.60;12.35;;;;;;;5.18;71.41;101210.06;5077220;28;20796;-76
2023/01/30 09:46:36;;;;;;;26.45;12.82;;;;;;;5.37;71.65;101199.97;5077557;28;20067;-76
2023/01/30 09:49:37;;;;;;;28.52;14.18;;;;;;;5.17;71.25;101202.97;5077621;28;20486;-76
2023/01/30 09:52:40;;;;;;;31.63;13.23;;;;;;;5.50;71.26;101198.97;5077498;28;20063;-76
2023/01/30 09:55:23;;;;;;;22.90;12.73;;;;;;;5.64;71.24;101183.34;5077119;28;20036;-76
2023/01/30 09:57:52;;;;;;;28.48;14.13;;;;;;;5.47;71.82;101185.88;5075451;28;20052;-76
2023/01/30 10:00:24;;;;;;;29.83;14.90;;;;;;;5.58;70.98;101189.69;5077529;28;20037;-75
2023/01/30 10:03:11;;;;;;;29.98;14.00;;;;;;;5.64;70.36;101196.91;5076339;28;20049;-76
2023/01/30 10:05:53;;;;;;;32.38;14.18;;;;;;;5.59;71.51;101186.75;5077596;28;20048;-76
2023/01/30 10:08:44;;;;;;;31.65;14.65;;;;;;;5.65;70.26;101179.56;5077178;28;20063;-76
2023/01/30 10:11:39;;;;;;;32.60;15.40;;;;;;;5.69;71.19;101179.91;5077093;28;20407;-75
2023/01/30 10:14:25;;;;;;;30.63;15.00;;;;;;;5.63;71.14;101170.81;5074569;28;20403;-75
2023/01/30 10:17:34;;;;;;;32.00;14.65;;;;;;;5.73;70.87;101151.25;5072887;28;20495;-76
2023/01/30 10:20:30;;;;;;;32.05;14.93;;;;;;;5.53;71.04;101149.66;5091685;28;20063;-76
2023/01/30 10:23:25;;;;;;;31.02;14.63;;;;;;;5.46;71.80;101138.91;5064936;28;20041;-76
2023/01/30 10:26:07;;;;;;;31.67;15.40;;;;;;;5.43;72.59;101123.06;5065889;28;20041;-75
2023/01/30 10:28:42;;;;;;;32.00;17.70;;;;;;;5.33;73.57;101122.81;5090536;28;20044;-76
2023/01/30 10:31:19;;;;;;;40.55;17.95;;;;;;;5.10;75.23;101110.81;5074013;28;20037;-75
2023/01/30 10:33:56;;;;;;;40.35;17.52;;;;;;;5.35;74.75;101121.53;5073767;28;20044;-76
2023/01/30 10:36:34;;;;;;;37.25;17.58;;;;;;;5.40;74.19;101098.28;5072804;28;20044;-76
2023/01/30 10:39:09;;;;;;;40.28;17.65;;;;;;;5.31;75.39;101093.19;5074045;28;20394;-76
2023/01/30 10:41:48;;;;;;;40.08;18.45;;;;;;;5.55;75.43;101097.81;5053985;28;20391;-76
2023/01/30 10:44:17;;;;;;;40.53;19.02;;;;;;;5.71;73.49;101077.34;5047368;28;20059;-75
2023/01/30 10:46:52;;;;;;;34.97;17.52;;;;;;;5.83;73.68;101080.03;5072223;28;20040;-75
2023/01/30 10:50:14;;;;;;;35.65;18.42;;;;;;;5.73;74.32;101067.84;5064195;28;20550;-75
2023/01/30 10:52:52;;;;;;;39.80;19.70;;;;;;;5.81;75.06;101068.59;4992017;28;20520;-75
2023/01/30 10:55:23;;;;;;;40.80;19.30;;;;;;;5.97;75.07;101067.06;5062294;28;20061;-76
2023/01/30 10:58:34;;;;;;;45.17;19.97;;;;;;;6.13;73.34;101070.97;5070692;28;20058;-75
2023/01/30 11:01:25;;;;;;;43.80;20.33;;;;;;;6.07;75.72;101064.59;5062473;28;20041;-75
2023/01/30 11:04:02;;;;;;;45.40;21.20;;;;;;;6.19;75.24;101061.88;5053766;28;20051;-75
2023/01/30 11:06:34;;;;;;;36.10;20.08;;;;;;;6.38;72.91;101067.97;5089517;28;20041;-75
2023/01/30 11:09:03;;;;;;;45.17;21.40;;;;;;;6.42;72.84;101041.97;5073727;28;20532;-75
2023/01/30 11:11:47;;;;;;;46.33;21.83;;;;;;;6.44;75.11;101025.41;5073432;28;20040;-76
2023/01/30 11:14:15;;;;;;;36.75;19.98;;;;;;;6.50;74.20;101020.91;5069352;28;20041;-75
2023/01/30 11:16:54;;;;;;;42.67;20.55;;;;;;;6.62;72.68;101013.53;5068513;28;20044;-75
2023/01/30 11:19:32;;;;;;;38.50;19.95;;;;;;;6.75;71.90;101006.94;5079024;28;20411;-76
2023/01/30 11:22:03;;;;;;;43.10;21.83;;;;;;;6.79;72.69;101010.03;5092797;28;20040;-75
2023/01/30 11:24:39;;;;;;;45.03;21.80;;;;;;;6.80;72.99;101001.59;5081255;28;20055;-75
2023/01/30 11:27:30;;;;;;;41.63;22.20;;;;;;;6.82;73.61;101006.81;5085489;28;20478;-76
2023/01/30 11:30:18;;;;;;;44.78;22.40;;;;;;;6.69;74.22;100997.88;5092754;28;20487;-77
2023/01/30 11:32:49;;;;;;;43.92;21.60;;;;;;;6.87;72.60;100993.31;5093653;28;20048;-76
2023/01/30 11:35:25;;;;;;;45.70;21.45;;;;;;;6.92;72.47;100971.63;5090262;28;20044;-75
2023/01/30 11:38:09;;;;;;;39.17;20.38;;;;;;;6.95;72.38;100960.25;5090736;28;20059;-75
2023/01/30 11:40:40;;;;;;;48.88;22.77;;;;;;;7.11;72.13;100976.84;5073976;28;20044;-73
2023/01/30 11:43:12;;;;;;;37.15;21.42;;;;;;;7.15;71.18;100971.72;5091279;28;20040;-73